createdAt,value
2018-12-27T00:00:27.449Z,85.58
2018-12-27T00:01:27.435Z,85.99
2018-12-27T00:02:27.424Z,85.78
2018-12-27T00:03:27.435Z,85.89
2018-12-27T00:04:27.401Z,85.78
2018-12-27T00:05:27.393Z,86.20
2018-12-27T00:06:27.378Z,86.10
2018-12-27T00:07:27.376Z,85.78
2018-12-27T00:08:27.384Z,85.68
2018-12-27T00:09:27.348Z,85.64
2018-12-27T00:10:27.356Z,85.36
2018-12-27T00:11:27.329Z,85.26
2018-12-27T00:12:27.323Z,85.58
2018-12-27T00:13:27.327Z,85.47
2018-12-27T00:14:27.292Z,85.02
2018-12-27T00:15:27.281Z,85.05
2018-12-27T00:16:27.272Z,85.43
2018-12-27T00:17:27.259Z,85.36
2018-12-27T00:18:27.272Z,84.91
2018-12-27T00:19:27.241Z,85.85
2018-12-27T00:20:27.235Z,85.64
2018-12-27T00:21:27.219Z,85.85
2018-12-27T00:22:27.206Z,85.33
2018-12-27T00:23:27.218Z,84.81
2018-12-27T00:24:27.186Z,84.50
2018-12-27T00:25:27.177Z,84.60
2018-12-27T00:26:27.164Z,84.50
2018-12-27T00:27:27.151Z,85.33
2018-12-27T00:28:27.169Z,85.43
2018-12-27T00:29:27.132Z,85.22
2018-12-27T00:30:27.124Z,85.47
2018-12-27T00:31:27.108Z,85.33
2018-12-27T00:32:27.098Z,85.02
2018-12-27T00:33:27.110Z,85.43
2018-12-27T00:34:27.076Z,85.26
2018-12-27T00:35:27.067Z,85.36
2018-12-27T00:36:27.057Z,85.53
2018-12-27T00:37:27.046Z,85.64
2018-12-27T00:38:27.072Z,85.64
2018-12-27T00:39:27.022Z,85.22
2018-12-27T00:40:27.013Z,84.81
2018-12-27T00:41:27.000Z,85.02
2018-12-27T00:42:26.991Z,85.74
2018-12-27T00:43:26.980Z,86.16
2018-12-27T00:44:26.996Z,86.06
2018-12-27T00:45:26.962Z,85.74
2018-12-27T00:46:26.946Z,85.43
2018-12-27T00:47:26.938Z,85.85
2018-12-27T00:48:26.925Z,85.85
2018-12-27T00:49:26.941Z,85.53
2018-12-27T00:50:26.904Z,85.64
2018-12-27T00:51:26.892Z,85.53
2018-12-27T00:52:26.885Z,85.22
2018-12-27T00:53:26.870Z,85.02
2018-12-27T00:54:26.885Z,85.47
2018-12-27T00:55:26.851Z,85.12
2018-12-27T00:56:26.842Z,84.50
2018-12-27T00:57:26.828Z,84.95
2018-12-27T00:58:26.816Z,85.47
2018-12-27T00:59:26.834Z,85.68
2018-12-27T01:00:26.800Z,85.68
2018-12-27T01:01:26.788Z,85.68
2018-12-27T01:02:26.774Z,85.68
2018-12-27T01:03:26.768Z,85.85
2018-12-27T01:04:26.781Z,85.58
2018-12-27T01:05:26.743Z,85.47
2018-12-27T01:06:26.736Z,85.58
2018-12-27T01:07:26.722Z,85.89
2018-12-27T01:08:26.712Z,85.89
2018-12-27T01:09:26.723Z,85.58
2018-12-27T01:10:26.687Z,85.99
2018-12-27T01:11:26.676Z,85.68
2018-12-27T01:12:26.668Z,85.58
2018-12-27T01:13:26.655Z,85.68
2018-12-27T01:14:26.669Z,85.68
2018-12-27T01:15:26.634Z,85.33
2018-12-27T01:16:26.623Z,85.89
2018-12-27T01:17:26.613Z,85.58
2018-12-27T01:18:26.604Z,85.89
2018-12-27T01:19:26.618Z,85.58
2018-12-27T01:20:26.578Z,85.89
2018-12-27T01:21:26.568Z,85.16
2018-12-27T01:22:26.561Z,84.84
2018-12-27T01:23:26.547Z,85.47
2018-12-27T01:24:26.652Z,85.68
2018-12-27T01:25:26.531Z,85.47
2018-12-27T01:26:26.514Z,85.68
2018-12-27T01:27:26.503Z,85.99
2018-12-27T01:28:26.493Z,85.47
2018-12-27T01:29:26.486Z,85.89
2018-12-27T01:30:26.496Z,85.85
2018-12-27T01:31:26.461Z,85.33
2018-12-27T01:32:26.448Z,85.89
2018-12-27T01:33:26.441Z,84.95
2018-12-27T01:34:26.427Z,85.36
2018-12-27T01:35:26.441Z,85.64
2018-12-27T01:36:26.409Z,85.78
2018-12-27T01:37:26.403Z,85.43
2018-12-27T01:38:26.383Z,85.68
2018-12-27T01:39:26.374Z,85.47
2018-12-27T01:40:26.385Z,85.89
2018-12-27T01:41:26.352Z,85.96
2018-12-27T01:42:26.341Z,86.30
2018-12-27T01:43:26.330Z,85.96
2018-12-27T01:44:26.320Z,85.96
2018-12-27T01:45:26.334Z,85.78
2018-12-27T01:46:26.298Z,85.85
2018-12-27T01:47:26.289Z,85.47
2018-12-27T01:48:26.277Z,85.68
2018-12-27T01:49:26.269Z,85.58
2018-12-27T01:50:26.279Z,85.16
2018-12-27T01:51:26.243Z,85.05
2018-12-27T01:52:26.232Z,85.47
2018-12-27T01:53:26.236Z,85.58
2018-12-27T01:54:26.215Z,85.99
2018-12-27T01:55:26.240Z,86.10
2018-12-27T01:56:26.190Z,85.26
2018-12-27T01:57:26.181Z,86.10
2018-12-27T01:58:26.169Z,85.58
2018-12-27T01:59:26.160Z,85.36
2018-12-27T02:00:26.147Z,85.89
2018-12-27T02:01:26.162Z,86.10
2018-12-27T02:02:26.126Z,85.89
2018-12-27T02:03:26.602Z,86.20
2018-12-27T02:04:26.104Z,86.10
2018-12-27T02:05:26.093Z,85.58
2018-12-27T02:06:26.105Z,85.68
2018-12-27T02:07:26.071Z,85.99
2018-12-27T02:08:26.071Z,85.47
2018-12-27T02:09:26.052Z,85.36
2018-12-27T02:10:26.039Z,85.68
2018-12-27T02:11:26.054Z,85.58
2018-12-27T02:12:26.016Z,85.58
2018-12-27T02:13:26.006Z,85.89
2018-12-27T02:14:25.996Z,85.96
2018-12-27T02:15:26.015Z,85.53
2018-12-27T02:16:25.999Z,85.64
2018-12-27T02:17:25.967Z,85.33
2018-12-27T02:18:25.955Z,85.47
2018-12-27T02:19:25.946Z,85.36
2018-12-27T02:20:25.931Z,84.64
2018-12-27T02:21:25.948Z,85.26
2018-12-27T02:22:25.908Z,84.95
2018-12-27T02:23:25.899Z,85.16
2018-12-27T02:24:25.889Z,84.95
2018-12-27T02:25:25.876Z,85.47
2018-12-27T02:26:25.866Z,85.36
2018-12-27T02:27:25.879Z,85.47
2018-12-27T02:28:25.845Z,85.68
2018-12-27T02:29:25.834Z,85.43
2018-12-27T02:30:25.826Z,85.64
2018-12-27T02:31:25.814Z,85.74
2018-12-27T02:32:25.832Z,85.85
2018-12-27T02:33:25.791Z,85.96
2018-12-27T02:34:25.779Z,85.33
2018-12-27T02:35:25.768Z,85.85
2018-12-27T02:36:25.763Z,85.64
2018-12-27T02:37:25.773Z,85.22
2018-12-27T02:38:25.735Z,84.91
2018-12-27T02:39:25.730Z,85.22
2018-12-27T02:40:25.727Z,85.64
2018-12-27T02:41:25.709Z,85.74
2018-12-27T02:42:25.717Z,85.33
2018-12-27T02:43:25.684Z,85.33
2018-12-27T02:44:25.670Z,85.53
2018-12-27T02:45:25.669Z,85.12
2018-12-27T02:46:25.650Z,85.12
2018-12-27T02:47:25.666Z,84.60
2018-12-27T02:48:25.631Z,84.60
2018-12-27T02:49:25.617Z,84.70
2018-12-27T02:50:25.608Z,84.50
2018-12-27T02:51:25.598Z,85.02
2018-12-27T02:52:25.732Z,84.91
2018-12-27T02:53:25.577Z,85.33
2018-12-27T02:54:25.563Z,84.91
2018-12-27T02:55:25.552Z,84.70
2018-12-27T02:56:25.546Z,84.43
2018-12-27T02:57:25.533Z,84.50
2018-12-27T02:58:25.545Z,84.50
2018-12-27T02:59:25.510Z,85.16
2018-12-27T03:00:25.507Z,84.95
2018-12-27T03:01:25.490Z,85.26
2018-12-27T03:02:25.481Z,85.05
2018-12-27T03:03:25.491Z,84.84
2018-12-27T03:04:25.474Z,84.33
2018-12-27T03:05:25.449Z,84.53
2018-12-27T03:06:25.437Z,84.64
2018-12-27T03:07:25.423Z,84.84
2018-12-27T03:08:25.446Z,84.95
2018-12-27T03:09:25.408Z,84.99
2018-12-27T03:10:25.391Z,85.30
2018-12-27T03:11:25.389Z,85.82
2018-12-27T03:12:25.370Z,85.61
2018-12-27T03:13:25.386Z,85.20
2018-12-27T03:14:25.348Z,85.41
2018-12-27T03:15:25.344Z,85.51
2018-12-27T03:16:25.326Z,85.41
2018-12-27T03:17:25.319Z,84.67
2018-12-27T03:18:25.329Z,84.47
2018-12-27T03:19:25.296Z,85.10
2018-12-27T03:20:25.286Z,84.99
2018-12-27T03:21:25.277Z,85.51
2018-12-27T03:22:25.265Z,85.61
2018-12-27T03:23:25.297Z,84.99
2018-12-27T03:24:25.240Z,85.03
2018-12-27T03:25:25.229Z,85.13
2018-12-27T03:26:25.218Z,85.13
2018-12-27T03:27:25.214Z,84.82
2018-12-27T03:28:25.201Z,84.67
2018-12-27T03:29:25.217Z,85.20
2018-12-27T03:30:25.189Z,85.13
2018-12-27T03:31:25.166Z,85.13
2018-12-27T03:32:25.157Z,85.24
2018-12-27T03:33:25.150Z,85.34
2018-12-27T03:34:25.178Z,86.07
2018-12-27T03:35:25.122Z,85.34
2018-12-27T03:36:25.113Z,85.55
2018-12-27T03:37:25.104Z,85.65
2018-12-27T03:38:25.089Z,85.86
2018-12-27T03:39:25.100Z,85.97
2018-12-27T03:40:25.069Z,86.13
2018-12-27T03:41:25.060Z,86.07
2018-12-27T03:42:25.045Z,85.55
2018-12-27T03:43:25.040Z,85.76
2018-12-27T03:44:25.047Z,86.18
2018-12-27T03:45:25.020Z,85.65
2018-12-27T03:46:25.003Z,85.55
2018-12-27T03:47:24.992Z,85.76
2018-12-27T03:48:24.985Z,85.55
2018-12-27T03:49:24.994Z,85.97
2018-12-27T03:50:24.957Z,85.97
2018-12-27T03:51:24.948Z,85.65
2018-12-27T03:52:24.939Z,85.76
2018-12-27T03:53:24.925Z,86.18
2018-12-27T03:54:24.946Z,86.18
2018-12-27T03:55:24.903Z,86.18
2018-12-27T03:56:24.892Z,85.34
2018-12-27T03:57:24.902Z,85.76
2018-12-27T03:58:24.870Z,86.07
2018-12-27T03:59:24.889Z,86.28
2018-12-27T04:00:24.852Z,85.76
2018-12-27T04:01:24.846Z,85.65
2018-12-27T04:02:24.828Z,85.76
2018-12-27T04:03:33.327Z,85.76
2018-12-27T04:04:24.811Z,86.18
2018-12-27T04:05:24.837Z,86.18
2018-12-27T04:06:24.806Z,86.28
2018-12-27T04:07:24.779Z,85.44
2018-12-27T04:08:24.777Z,85.55
2018-12-27T04:09:24.768Z,85.80
2018-12-27T04:10:24.770Z,85.69
2018-12-27T04:11:24.729Z,85.44
2018-12-27T04:12:33.136Z,85.76
2018-12-27T04:13:26.826Z,85.80
2018-12-27T04:14:33.388Z,85.55
2018-12-27T04:15:24.713Z,85.69
2018-12-27T04:16:24.680Z,85.38
2018-12-27T04:17:24.667Z,85.27
2018-12-27T04:18:24.657Z,86.07
2018-12-27T04:19:24.653Z,85.69
2018-12-27T04:20:24.662Z,86.00
2018-12-27T04:21:24.626Z,85.49
2018-12-27T04:22:24.612Z,85.59
2018-12-27T04:23:24.600Z,85.80
2018-12-27T04:24:24.591Z,85.59
2018-12-27T04:25:24.625Z,85.80
2018-12-27T04:26:24.572Z,85.90
2018-12-27T04:27:24.565Z,85.90
2018-12-27T04:28:24.560Z,85.80
2018-12-27T04:29:24.536Z,85.80
2018-12-27T04:30:24.526Z,85.83
2018-12-27T04:31:24.544Z,85.49
2018-12-27T04:32:24.507Z,85.17
2018-12-27T04:33:24.493Z,85.31
2018-12-27T04:34:24.482Z,85.21
2018-12-27T04:35:24.475Z,85.63
2018-12-27T04:36:24.483Z,85.83
2018-12-27T04:37:24.451Z,86.11
2018-12-27T04:38:24.443Z,85.73
2018-12-27T04:39:24.429Z,85.94
2018-12-27T04:40:24.418Z,85.42
2018-12-27T04:41:24.432Z,86.15
2018-12-27T04:42:24.397Z,85.94
2018-12-27T04:43:24.388Z,86.15
2018-12-27T04:44:24.382Z,86.25
2018-12-27T04:45:24.366Z,86.36
2018-12-27T04:46:24.381Z,85.63
2018-12-27T04:47:24.346Z,85.83
2018-12-27T04:48:24.333Z,86.05
2018-12-27T04:49:24.323Z,85.63
2018-12-27T04:50:24.312Z,85.73
2018-12-27T04:51:24.325Z,85.73
2018-12-27T04:52:24.294Z,85.83
2018-12-27T04:53:24.280Z,86.05
2018-12-27T04:54:24.268Z,85.63
2018-12-27T04:55:24.289Z,86.46
2018-12-27T04:56:24.284Z,85.73
2018-12-27T04:57:24.235Z,86.05
2018-12-27T04:58:24.227Z,85.63
2018-12-27T04:59:24.225Z,85.63
2018-12-27T05:00:24.206Z,86.15
2018-12-27T05:01:24.194Z,86.88
2018-12-27T05:02:24.206Z,86.67
2018-12-27T05:03:24.170Z,86.05
2018-12-27T05:04:24.163Z,85.73
2018-12-27T05:05:24.149Z,85.73
2018-12-27T05:06:34.117Z,86.40
2018-12-27T05:07:24.132Z,85.98
2018-12-27T05:08:24.118Z,85.83
2018-12-27T05:09:24.107Z,85.88
2018-12-27T05:10:24.094Z,85.83
2018-12-27T05:11:24.084Z,86.15
2018-12-27T05:12:24.106Z,86.15
2018-12-27T05:13:24.066Z,85.88
2018-12-27T05:14:24.055Z,86.08
2018-12-27T05:15:24.045Z,85.77
2018-12-27T05:16:24.032Z,85.46
2018-12-27T05:17:24.045Z,85.94
2018-12-27T05:18:24.045Z,86.19
2018-12-27T05:19:24.004Z,85.88
2018-12-27T05:20:32.339Z,85.67
2018-12-27T05:21:23.977Z,85.67
2018-12-27T05:22:23.988Z,85.77
2018-12-27T05:23:23.954Z,86.61
2018-12-27T05:24:23.946Z,87.13
2018-12-27T05:25:23.933Z,86.92
2018-12-27T05:26:23.928Z,85.94
2018-12-27T05:27:23.939Z,86.08
2018-12-27T05:28:23.903Z,85.98
2018-12-27T05:29:23.891Z,85.77
2018-12-27T05:30:23.880Z,85.88
2018-12-27T05:31:23.871Z,85.88
2018-12-27T05:32:23.897Z,85.88
2018-12-27T05:33:23.854Z,85.56
2018-12-27T05:34:26.349Z,86.19
2018-12-27T05:35:23.828Z,86.08
2018-12-27T05:36:23.815Z,85.56
2018-12-27T05:37:23.805Z,86.19
2018-12-27T05:38:23.824Z,86.19
2018-12-27T05:39:23.786Z,86.02
2018-12-27T05:40:23.775Z,86.51
2018-12-27T05:41:32.425Z,85.88
2018-12-27T05:42:23.752Z,85.67
2018-12-27T05:43:23.761Z,85.25
2018-12-27T05:44:23.731Z,85.77
2018-12-27T05:45:23.717Z,86.33
2018-12-27T05:46:23.707Z,86.08
2018-12-27T05:47:23.695Z,86.33
2018-12-27T05:48:23.708Z,85.91
2018-12-27T05:49:23.675Z,85.91
2018-12-27T05:50:23.669Z,85.81
2018-12-27T05:51:23.656Z,85.56
2018-12-27T05:52:23.645Z,85.46
2018-12-27T05:53:23.654Z,85.91
2018-12-27T05:54:23.619Z,85.81
2018-12-27T05:55:23.610Z,85.50
2018-12-27T05:56:23.605Z,85.18
2018-12-27T05:57:23.588Z,85.29
2018-12-27T05:58:23.599Z,85.91
2018-12-27T05:59:23.581Z,86.23
2018-12-27T06:00:23.558Z,85.91
2018-12-27T06:01:23.545Z,86.23
2018-12-27T06:02:23.535Z,86.75
2018-12-27T06:03:23.558Z,85.60
2018-12-27T06:04:23.513Z,86.02
2018-12-27T06:05:31.779Z,86.23
2018-12-27T06:06:23.491Z,85.91
2018-12-27T06:07:23.480Z,85.71
2018-12-27T06:08:23.482Z,85.71
2018-12-27T06:09:23.482Z,86.54
2018-12-27T06:10:23.449Z,86.13
2018-12-27T06:11:23.436Z,85.60
2018-12-27T06:12:23.433Z,85.43
2018-12-27T06:13:23.417Z,85.81
2018-12-27T06:14:23.433Z,86.33
2018-12-27T06:15:23.394Z,86.02
2018-12-27T06:16:23.384Z,86.23
2018-12-27T06:17:23.373Z,86.13
2018-12-27T06:18:23.376Z,86.02
2018-12-27T06:19:31.697Z,86.02
2018-12-27T06:20:33.023Z,85.91
2018-12-27T06:21:23.332Z,85.18
2018-12-27T06:22:23.323Z,85.29
2018-12-27T06:23:23.326Z,86.13
2018-12-27T06:24:23.334Z,86.23
2018-12-27T06:25:23.296Z,85.60
2018-12-27T06:26:33.234Z,85.81
2018-12-27T06:28:18.542Z,85.08
2018-12-27T06:29:18.554Z,85.50
2018-12-27T06:30:18.518Z,85.29
2018-12-27T06:31:18.496Z,85.50
2018-12-27T06:32:18.492Z,86.23
2018-12-27T06:33:18.474Z,86.02
2018-12-27T06:34:28.369Z,86.16
2018-12-27T06:35:18.457Z,86.27
2018-12-27T06:36:18.564Z,85.71
2018-12-27T06:37:18.434Z,85.74
2018-12-27T06:38:18.420Z,85.74
2018-12-27T06:39:28.475Z,85.74
2018-12-27T06:40:18.399Z,85.74
2018-12-27T06:41:18.398Z,85.53
2018-12-27T06:42:18.378Z,85.53
2018-12-27T06:43:18.367Z,86.02
2018-12-27T06:44:18.360Z,85.96
2018-12-27T06:45:18.370Z,86.69
2018-12-27T06:46:27.119Z,85.96
2018-12-27T06:47:18.326Z,85.74
2018-12-27T06:48:26.916Z,85.74
2018-12-27T06:49:18.303Z,86.20
2018-12-27T06:50:18.324Z,85.64
2018-12-27T06:51:18.299Z,85.22
2018-12-27T06:52:18.275Z,86.16
2018-12-27T06:53:18.261Z,85.96
2018-12-27T06:54:18.249Z,85.85
2018-12-27T06:55:18.324Z,85.33
2018-12-27T06:56:18.265Z,85.74
2018-12-27T06:57:18.229Z,85.33
2018-12-27T06:58:18.207Z,85.22
2018-12-27T06:59:18.195Z,85.43
2018-12-27T07:00:18.209Z,85.22
2018-12-27T07:01:18.175Z,85.33
2018-12-27T07:02:18.164Z,85.33
2018-12-27T07:03:27.519Z,84.91
2018-12-27T07:04:18.147Z,85.22
2018-12-27T07:05:18.157Z,85.47
2018-12-27T07:06:18.122Z,85.26
2018-12-27T07:07:18.110Z,85.33
2018-12-27T07:08:18.103Z,84.95
2018-12-27T07:09:18.088Z,85.16
2018-12-27T07:10:18.102Z,85.16
2018-12-27T07:11:18.066Z,85.16
2018-12-27T07:12:18.059Z,85.16
2018-12-27T07:13:26.731Z,85.68
2018-12-27T07:14:18.034Z,85.36
2018-12-27T07:15:18.048Z,85.68
2018-12-27T07:16:18.018Z,85.89
2018-12-27T07:17:18.024Z,86.20
2018-12-27T07:18:18.007Z,85.99
2018-12-27T07:19:17.982Z,85.89
2018-12-27T07:20:18.005Z,85.78
2018-12-27T07:21:17.957Z,85.36
2018-12-27T07:22:17.947Z,85.58
2018-12-27T07:23:17.939Z,85.78
2018-12-27T07:24:17.930Z,85.78
2018-12-27T07:25:17.916Z,85.99
2018-12-27T07:26:17.928Z,85.47
2018-12-27T07:27:17.896Z,85.68
2018-12-27T07:28:17.883Z,86.10
2018-12-27T07:29:28.056Z,86.10
2018-12-27T07:30:26.695Z,86.41
2018-12-27T07:31:17.850Z,85.89
2018-12-27T07:32:17.839Z,86.31
2018-12-27T07:33:17.828Z,85.96
2018-12-27T07:34:17.834Z,85.68
2018-12-27T07:35:17.830Z,85.89
2018-12-27T07:36:17.826Z,85.89
2018-12-27T07:37:17.788Z,85.99
2018-12-27T07:38:17.778Z,86.06
2018-12-27T07:39:17.768Z,86.31
2018-12-27T07:40:17.761Z,85.78
2018-12-27T07:41:17.765Z,86.47
2018-12-27T07:42:17.751Z,86.47
2018-12-27T07:43:17.720Z,86.16
2018-12-27T07:44:17.711Z,86.06
2018-12-27T07:46:11.841Z,85.64
2018-12-27T07:47:11.802Z,84.80
2018-12-27T07:49:02.524Z,84.59
2018-12-27T07:50:02.518Z,84.80
2018-12-27T07:51:02.525Z,85.12
2018-12-27T07:52:02.493Z,84.91
2018-12-27T07:53:02.486Z,84.91
2018-12-27T07:54:02.474Z,85.22
2018-12-27T07:55:02.462Z,85.64
2018-12-27T07:56:02.487Z,85.64
2018-12-27T07:57:03.244Z,84.91
2018-12-27T07:58:02.428Z,85.53
2018-12-27T07:59:12.748Z,85.50
2018-12-27T08:00:02.403Z,85.96
2018-12-27T08:01:02.402Z,85.33
2018-12-27T08:02:02.405Z,85.29
2018-12-27T08:03:02.371Z,85.01
2018-12-27T08:04:02.359Z,85.08
2018-12-27T08:05:04.144Z,85.12
2018-12-27T08:06:02.341Z,85.29
2018-12-27T08:07:02.360Z,85.50
2018-12-27T08:08:02.316Z,85.18
2018-12-27T08:09:02.306Z,85.08
2018-12-27T08:10:02.293Z,85.08
2018-12-27T08:11:02.284Z,85.50
2018-12-27T08:12:02.302Z,85.81
2018-12-27T08:13:02.267Z,85.39
2018-12-27T08:14:02.258Z,84.66
2018-12-27T08:15:02.250Z,84.97
2018-12-27T08:16:55.582Z,84.83
2018-12-27T08:17:55.559Z,84.20
2018-12-27T08:18:55.546Z,84.52
2018-12-27T08:19:55.537Z,84.83
2018-12-27T08:20:55.527Z,84.73
2018-12-27T08:21:55.524Z,84.94
2018-12-27T08:22:55.501Z,84.73
2018-12-27T08:23:55.481Z,84.89
2018-12-27T08:25:04.013Z,84.79
2018-12-27T08:25:55.456Z,84.48
2018-12-27T08:26:55.495Z,84.38
2018-12-27T08:27:55.439Z,83.64
2018-12-27T08:28:56.734Z,83.61
2018-12-27T08:29:55.415Z,83.61
2018-12-27T08:30:55.404Z,83.15
2018-12-27T08:31:55.391Z,83.08
2018-12-27T08:32:55.408Z,82.73
2018-12-27T08:33:55.403Z,82.94
2018-12-27T08:34:55.359Z,81.79
2018-12-27T08:35:55.349Z,82.70
2018-12-27T08:36:55.339Z,82.87
2018-12-27T08:37:55.351Z,81.72
2018-12-27T08:38:55.387Z,81.58
2018-12-27T08:39:55.311Z,81.26
2018-12-27T08:40:55.297Z,80.71
2018-12-27T08:41:55.287Z,81.65
2018-12-27T08:42:55.296Z,80.91
2018-12-27T08:43:55.275Z,80.60
2018-12-27T08:44:55.251Z,80.29
2018-12-27T08:45:55.256Z,80.40
2018-12-27T08:46:55.230Z,80.40
2018-12-27T08:47:55.244Z,81.33
2018-12-27T08:48:55.212Z,80.19
2018-12-27T08:49:55.195Z,80.60
2018-12-27T08:50:55.184Z,81.12
2018-12-27T08:51:55.178Z,80.60
2018-12-27T08:52:55.191Z,80.40
2018-12-27T08:53:55.150Z,81.43
2018-12-27T08:54:55.184Z,81.16
2018-12-27T08:55:55.129Z,81.26
2018-12-27T08:56:55.119Z,82.41
2018-12-27T08:57:55.132Z,81.89
2018-12-27T08:58:55.099Z,82.31
2018-12-27T08:59:55.085Z,82.79
2018-12-27T09:00:55.078Z,82.82
2018-12-27T09:01:55.063Z,81.75
2018-12-27T09:02:55.080Z,80.81
2018-12-27T09:03:55.088Z,81.43
2018-12-27T09:04:55.029Z,82.37
2018-12-27T09:05:55.041Z,81.85
2018-12-27T09:06:55.008Z,81.65
2018-12-27T09:07:55.024Z,81.85
2018-12-27T09:08:55.009Z,81.43
2018-12-27T09:09:54.986Z,82.23
2018-12-27T09:10:55.010Z,81.71
2018-12-27T09:11:54.954Z,81.71
2018-12-27T09:12:54.941Z,81.92
2018-12-27T09:13:54.955Z,82.03
2018-12-27T09:14:54.930Z,82.13
2018-12-27T09:15:54.910Z,82.13
2018-12-27T09:16:54.898Z,81.57
2018-12-27T09:17:54.917Z,82.13
2018-12-27T09:18:55.012Z,81.88
2018-12-27T09:19:54.864Z,82.13
2018-12-27T09:20:54.854Z,80.84
2018-12-27T09:21:54.846Z,80.84
2018-12-27T09:22:54.834Z,81.19
2018-12-27T09:23:54.850Z,81.40
2018-12-27T09:24:54.810Z,80.43
2018-12-27T09:25:54.799Z,82.30
2018-12-27T09:26:54.841Z,81.46
2018-12-27T09:27:54.783Z,81.67
2018-12-27T09:28:54.794Z,81.26
2018-12-27T09:29:54.759Z,81.88
2018-12-27T09:30:54.749Z,81.88
2018-12-27T09:31:54.734Z,81.77
2018-12-27T09:32:54.766Z,81.88
2018-12-27T09:33:54.761Z,81.88
2018-12-27T09:34:54.702Z,81.67
2018-12-27T09:35:54.691Z,80.84
2018-12-27T09:36:54.681Z,80.94
2018-12-27T09:37:54.673Z,80.70
2018-12-27T09:38:54.681Z,81.12
2018-12-27T09:39:54.648Z,80.70
2018-12-27T09:40:54.637Z,80.77
2018-12-27T09:41:54.627Z,80.04
2018-12-27T09:42:54.617Z,80.25
2018-12-27T09:44:03.043Z,80.15
2018-12-27T09:44:54.600Z,80.15
2018-12-27T09:45:54.588Z,80.25
2018-12-27T09:46:54.570Z,80.15
2018-12-27T09:47:54.559Z,80.25
2018-12-27T09:48:54.587Z,80.35
2018-12-27T09:49:54.539Z,80.56
2018-12-27T09:50:54.531Z,80.04
2018-12-27T09:51:58.723Z,80.15
2018-12-27T09:53:02.799Z,79.21
2018-12-27T09:54:03.821Z,80.25
2018-12-27T09:54:54.485Z,79.58
2018-12-27T09:55:54.471Z,80.21
2018-12-27T09:56:54.463Z,79.90
2018-12-27T09:57:54.449Z,79.38
2018-12-27T09:58:54.439Z,79.48
2018-12-27T09:59:54.452Z,79.27
2018-12-27T10:00:54.421Z,79.55
2018-12-27T10:02:02.911Z,79.44
2018-12-27T10:02:54.394Z,78.61
2018-12-27T10:03:54.385Z,79.30
2018-12-27T10:04:54.400Z,79.20
2018-12-27T10:06:04.656Z,78.47
2018-12-27T10:06:54.353Z,78.44
2018-12-27T10:07:57.588Z,77.92
2018-12-27T10:08:54.329Z,78.03
2018-12-27T10:09:54.344Z,77.99
2018-12-27T10:10:54.306Z,77.99
2018-12-27T10:11:54.298Z,77.44
2018-12-27T10:12:54.283Z,76.61
2018-12-27T10:13:54.273Z,76.40
2018-12-27T10:14:54.287Z,76.61
2018-12-27T10:15:54.249Z,76.46
2018-12-27T10:17:02.513Z,75.09
2018-12-27T10:17:54.228Z,75.09
2018-12-27T10:18:54.218Z,74.74
2018-12-27T10:20:02.490Z,74.43
2018-12-27T10:20:54.194Z,73.88
2018-12-27T10:21:54.183Z,74.29
2018-12-27T10:22:54.173Z,73.15
2018-12-27T10:23:54.163Z,73.12
2018-12-27T10:24:54.173Z,71.36
2018-12-27T10:25:54.141Z,71.26
2018-12-27T10:26:54.130Z,70.84
2018-12-27T10:27:54.118Z,72.29
2018-12-27T10:28:54.106Z,71.98
2018-12-27T10:29:54.119Z,72.39
2018-12-27T10:30:59.754Z,73.08
2018-12-27T10:31:54.082Z,70.53
2018-12-27T10:32:54.066Z,71.02
2018-12-27T10:33:54.055Z,71.22
2018-12-27T10:34:54.080Z,69.57
2018-12-27T10:35:54.030Z,70.61
2018-12-27T10:36:54.022Z,69.47
2018-12-27T10:37:54.007Z,69.67
2018-12-27T10:38:54.004Z,69.57
2018-12-27T10:40:02.277Z,70.29
2018-12-27T10:40:53.990Z,69.57
2018-12-27T10:41:53.967Z,69.47
2018-12-27T10:42:53.954Z,69.98
2018-12-27T10:44:02.213Z,69.57
2018-12-27T10:44:53.959Z,70.50
2018-12-27T10:45:53.929Z,70.40
2018-12-27T10:46:53.910Z,70.50
2018-12-27T10:47:53.899Z,69.12
2018-12-27T10:48:53.888Z,69.33
2018-12-27T10:49:53.901Z,70.47
2018-12-27T10:50:53.871Z,69.64
2018-12-27T10:51:53.855Z,69.85
2018-12-27T10:52:53.845Z,69.43
2018-12-27T10:53:53.833Z,68.74
2018-12-27T10:54:53.847Z,70.50
2018-12-27T10:55:53.811Z,70.01
2018-12-27T10:56:53.800Z,69.40
2018-12-27T10:57:53.789Z,70.43
2018-12-27T10:58:53.781Z,71.08
2018-12-27T10:59:53.794Z,72.22
2018-12-27T11:00:53.757Z,70.87
2018-12-27T11:01:53.744Z,72.02
2018-12-27T11:02:53.736Z,71.39
2018-12-27T11:04:02.516Z,72.43
2018-12-27T11:04:53.736Z,70.77
2018-12-27T11:05:53.701Z,71.91
2018-12-27T11:06:53.694Z,71.60
2018-12-27T11:07:53.679Z,72.43
2018-12-27T11:08:53.668Z,71.70
2018-12-27T11:09:53.679Z,70.47
2018-12-27T11:10:53.652Z,71.29
2018-12-27T11:11:53.637Z,70.57
2018-12-27T11:12:53.625Z,70.36
2018-12-27T11:13:53.613Z,71.70
2018-12-27T11:14:53.625Z,72.02
2018-12-27T11:15:53.594Z,72.53
2018-12-27T11:16:53.593Z,72.43
2018-12-27T11:17:53.577Z,72.64
2018-12-27T11:18:53.560Z,73.22
2018-12-27T11:19:53.570Z,74.15
2018-12-27T11:20:53.534Z,72.16
2018-12-27T11:21:53.525Z,72.16
2018-12-27T11:22:53.513Z,69.81
2018-12-27T11:23:53.500Z,70.09
2018-12-27T11:24:53.518Z,71.15
2018-12-27T11:25:53.481Z,70.29
2018-12-27T11:26:53.484Z,71.53
2018-12-27T11:28:02.498Z,71.95
2018-12-27T11:28:53.446Z,69.67
2018-12-27T11:29:53.485Z,70.50
2018-12-27T11:30:53.427Z,70.19
2018-12-27T11:31:53.414Z,70.40
2018-12-27T11:32:53.401Z,70.88
2018-12-27T11:33:53.390Z,71.19
2018-12-27T11:34:53.383Z,70.47
2018-12-27T11:35:55.905Z,71.40
2018-12-27T11:36:53.356Z,70.47
2018-12-27T11:37:53.345Z,70.67
2018-12-27T11:38:53.339Z,69.40
2018-12-27T11:39:53.324Z,69.61
2018-12-27T11:40:53.342Z,70.12
2018-12-27T11:41:53.303Z,69.61
2018-12-27T11:42:53.293Z,69.61
2018-12-27T11:43:53.279Z,69.92
2018-12-27T11:45:03.989Z,69.30
2018-12-27T11:45:53.265Z,68.99
2018-12-27T11:46:53.246Z,69.30
2018-12-27T11:47:53.239Z,70.30
2018-12-27T11:48:53.224Z,70.82
2018-12-27T11:49:53.212Z,70.72
2018-12-27T11:50:53.230Z,69.54
2018-12-27T11:51:53.193Z,69.13
2018-12-27T11:52:53.182Z,67.55
2018-12-27T11:53:53.185Z,68.27
2018-12-27T11:54:53.184Z,69.10
2018-12-27T11:55:53.172Z,68.79
2018-12-27T11:56:53.134Z,68.27
2018-12-27T11:57:53.124Z,65.56
2018-12-27T11:58:53.114Z,67.52
2018-12-27T11:59:53.103Z,66.39
2018-12-27T12:00:53.123Z,65.95
2018-12-27T12:01:53.087Z,66.15
2018-12-27T12:02:53.069Z,65.22
2018-12-27T12:03:53.073Z,65.84
2018-12-27T12:04:53.051Z,67.08
2018-12-27T12:05:53.065Z,66.53
2018-12-27T12:06:53.028Z,66.64
2018-12-27T12:07:53.032Z,66.53
2018-12-27T12:08:53.014Z,67.57
2018-12-27T12:09:53.017Z,64.99
2018-12-27T12:10:53.005Z,62.82
2018-12-27T12:12:02.027Z,64.89
2018-12-27T12:12:52.960Z,63.75
2018-12-27T12:13:52.946Z,64.89
2018-12-27T12:14:52.937Z,64.99
2018-12-27T12:15:52.948Z,64.27
2018-12-27T12:16:52.924Z,64.17
2018-12-27T12:17:52.908Z,65.19
2018-12-27T12:18:52.892Z,64.37
2018-12-27T12:19:52.885Z,63.75
2018-12-27T12:20:52.908Z,64.17
2018-12-27T12:21:52.861Z,64.99
2018-12-27T12:23:02.450Z,64.78
2018-12-27T12:23:52.840Z,65.81
2018-12-27T12:24:52.827Z,66.33
2018-12-27T12:25:52.842Z,65.26
2018-12-27T12:26:52.806Z,63.03
2018-12-27T12:28:45.354Z,64.96
2018-12-27T12:29:45.367Z,64.14
2018-12-27T12:30:45.395Z,65.16
2018-12-27T12:31:45.971Z,64.75
2018-12-27T12:32:45.583Z,64.86
2018-12-27T12:33:45.323Z,64.75
2018-12-27T12:34:45.280Z,64.86
2018-12-27T12:35:45.291Z,65.19
2018-12-27T12:36:45.260Z,65.71
2018-12-27T12:37:45.247Z,66.12
2018-12-27T12:38:45.235Z,66.74
2018-12-27T12:39:45.224Z,65.71
2018-12-27T12:40:54.737Z,66.94
2018-12-27T12:41:45.206Z,66.84
2018-12-27T12:42:45.193Z,66.84
2018-12-27T12:43:45.180Z,67.05
2018-12-27T12:45:37.092Z,65.09
2018-12-27T12:46:37.059Z,63.96
2018-12-27T12:47:37.048Z,64.89
2018-12-27T12:48:37.345Z,65.09
2018-12-27T12:49:37.022Z,66.12
2018-12-27T12:50:37.042Z,66.15
2018-12-27T12:51:46.208Z,66.74
2018-12-27T12:52:39.252Z,65.50
2018-12-27T12:53:36.978Z,65.50
2018-12-27T12:54:36.969Z,66.12
2018-12-27T12:55:45.579Z,66.33
2018-12-27T12:56:43.952Z,63.75
2018-12-27T12:57:36.933Z,64.68